Time;durP1;ratioP1;P1;durP2;ratioP2;P2;SDS_P1;SDS_P2;PMS_P1;PMS_P2;Temp;Humidity;BMP_temperature;BMP_pressure;BME280_temperature;BME280_humidity;BME280_pressure;Samples;Min_cycle;Max_cycle;Signal;HPM_P1;HPM_P2
2021/03/12 00:01:15;;;;;;;4.80;0.15;;;7.40;99.90;;;;;;5056007;28;20025;-73
2021/03/12 00:03:41;;;;;;;14.18;0.45;;;7.40;99.90;;;;;;5055580;28;20074;-73
2021/03/12 00:06:09;;;;;;;7.45;0.77;;;7.40;99.90;;;;;;5037032;28;20047;-74
2021/03/12 00:08:38;;;;;;;8.93;0.08;;;7.40;99.90;;;;;;5055081;28;20020;-73
2021/03/12 00:11:05;;;;;;;9.57;0.10;;;7.40;99.90;;;;;;5054944;28;20126;-73
2021/03/12 00:13:32;;;;;;;7.35;0.68;;;7.40;99.90;;;;;;5055191;28;20013;-73
2021/03/12 00:15:57;;;;;;;4.93;0.20;;;7.40;99.90;;;;;;5055163;28;20021;-73
2021/03/12 00:18:28;;;;;;;9.77;1.38;;;7.40;99.90;;;;;;5054972;28;20033;-74
2021/03/12 00:20:54;;;;;;;6.22;0.22;;;7.40;99.90;;;;;;5069928;22;20138;-73
2021/03/12 00:23:20;;;;;;;9.65;0.52;;;7.40;99.90;;;;;;5055458;28;20491;-74
2021/03/12 00:25:47;;;;;;;7.38;0.38;;;7.50;99.90;;;;;;5055142;28;20017;-73
2021/03/12 00:28:14;;;;;;;6.25;0.10;;;7.50;99.90;;;;;;5054607;28;20035;-74
2021/03/12 00:30:40;;;;;;;5.38;0.10;;;7.40;99.90;;;;;;5054341;28;20513;-73
2021/03/12 00:33:07;;;;;;;8.27;0.65;;;7.40;99.90;;;;;;5052976;28;20025;-73
2021/03/12 00:35:34;;;;;;;6.35;0.30;;;7.30;99.90;;;;;;5040882;22;20073;-74
2021/03/12 00:38:00;;;;;;;8.43;0.40;;;7.30;99.90;;;;;;5034366;28;20395;-74
2021/03/12 00:40:29;;;;;;;6.03;0.30;;;7.30;99.90;;;;;;5017378;28;20025;-74
2021/03/12 00:42:55;;;;;;;7.38;0.68;;;7.20;99.90;;;;;;5035269;28;20052;-74
2021/03/12 00:45:22;;;;;;;10.85;0.20;;;7.30;99.90;;;;;;5017121;28;20022;-73
2021/03/12 00:47:47;;;;;;;6.32;0.55;;;7.30;99.90;;;;;;5016460;28;20369;-73
2021/03/12 00:50:16;;;;;;;5.45;0.32;;;7.20;99.90;;;;;;5034543;28;20147;-73
2021/03/12 00:52:42;;;;;;;11.60;0.32;;;7.30;99.90;;;;;;5034471;28;20524;-73
2021/03/12 00:55:08;;;;;;;4.85;0.22;;;7.20;99.90;;;;;;5016759;28;20113;-74
2021/03/12 00:57:33;;;;;;;15.95;1.70;;;10.20;99.90;;;;;;5033550;28;20027;-74
2021/03/12 00:59:59;;;;;;;8.30;0.93;;;7.20;99.90;;;;;;5033780;28;20588;-74
2021/03/12 01:02:24;;;;;;;5.30;0.50;;;7.30;99.90;;;;;;5034246;28;20017;-75
2021/03/12 01:04:50;;;;;;;5.18;0.55;;;7.30;99.90;;;;;;5034491;28;20021;-75
2021/03/12 01:07:16;;;;;;;11.82;0.40;;;7.30;99.90;;;;;;5033873;28;20100;-75
2021/03/12 01:09:41;;;;;;;7.28;0.65;;;7.30;99.90;;;;;;5033699;28;20034;-75
2021/03/12 01:12:07;;;;;;;7.28;1.95;;;7.30;99.90;;;;;;5034551;28;20032;-74
2021/03/12 01:14:33;;;;;;;6.75;0.43;;;7.20;99.90;;;;;;5034086;28;20150;-74
2021/03/12 01:16:58;;;;;;;6.70;0.10;;;7.10;99.90;;;;;;5033399;28;20533;-74
2021/03/12 01:19:24;;;;;;;4.00;0.45;;;7.10;99.90;;;;;;5033681;28;20026;-74
2021/03/12 01:21:49;;;;;;;5.25;0.47;;;7.00;99.90;;;;;;5033816;28;20083;-74
2021/03/12 01:24:15;;;;;;;0.43;0.00;;;7.00;99.90;;;;;;5048953;28;20027;-74
2021/03/12 01:26:41;;;;;;;6.80;0.95;;;6.90;99.90;;;;;;5034337;28;20476;-73
2021/03/12 01:29:07;;;;;;;4.63;0.30;;;6.90;99.90;;;;;;5034532;28;20036;-74
2021/03/12 01:31:32;;;;;;;16.08;1.27;;;6.90;99.90;;;;;;5033836;28;20053;-75
2021/03/12 01:33:58;;;;;;;9.10;0.38;;;6.90;99.90;;;;;;5049934;22;20132;-74
2021/03/12 01:36:24;;;;;;;9.35;0.40;;;6.40;99.90;;;;;;5033848;28;20032;-74
2021/03/12 01:38:49;;;;;;;5.80;0.10;;;6.80;99.90;;;;;;5032985;28;20018;-74
2021/03/12 01:41:15;;;;;;;3.70;0.00;;;7.00;99.90;;;;;;5033577;28;20037;-74
2021/03/12 01:43:40;;;;;;;3.15;0.43;;;7.00;99.90;;;;;;5036489;28;20029;-74
2021/03/12 01:46:06;;;;;;;3.65;0.60;;;7.00;99.90;;;;;;5041506;28;20022;-73
2021/03/12 01:48:34;;;;;;;13.73;0.93;;;7.00;99.90;;;;;;5039881;28;20112;-73
2021/03/12 01:51:04;;;;;;;3.97;0.85;;;6.90;99.90;;;;;;5040317;28;20021;-73
2021/03/12 01:53:31;;;;;;;7.85;0.95;;;6.90;99.90;;;;;;5086127;22;20051;-73
2021/03/12 01:55:57;;;;;;;8.60;0.75;;;6.90;99.90;;;;;;5079660;28;20417;-74
2021/03/12 01:58:24;;;;;;;4.68;0.60;;;6.90;99.90;;;;;;5081089;28;20023;-74
2021/03/12 02:00:50;;;;;;;6.93;0.90;;;6.90;99.90;;;;;;5095725;22;20049;-73
2021/03/12 02:03:18;;;;;;;8.75;0.88;;;6.90;99.90;;;;;;5080549;28;20085;-74
2021/03/12 02:05:44;;;;;;;8.40;0.10;;;6.90;99.90;;;;;;5080497;28;20051;-73
2021/03/12 02:08:10;;;;;;;10.73;0.75;;;6.90;99.90;;;;;;5061499;28;20514;-73
2021/03/12 02:10:36;;;;;;;7.53;0.38;;;6.80;99.90;;;;;;5059111;28;20479;-73
2021/03/12 02:13:11;;;;;;;4.28;0.80;;;6.80;99.90;;;;;;5060816;28;20025;-73
2021/03/12 02:15:49;;;;;;;13.65;1.50;;;6.80;99.90;;;;;;5041204;28;20048;-74
2021/03/12 02:18:15;;;;;;;;;;;6.80;99.90;;;;;;5059514;28;20028;-73
2021/03/12 02:20:54;;;;;;;10.18;0.70;;;6.80;99.90;;;;;;5060354;28;20117;-75
2021/03/12 02:23:39;;;;;;;9.35;0.88;;;6.80;99.90;;;;;;5060839;28;20024;-73
2021/03/12 02:26:11;;;;;;;5.10;0.63;;;6.80;99.90;;;;;;5064213;28;20510;-74
2021/03/12 02:28:38;;;;;;;13.38;2.20;;;6.80;99.90;;;;;;5061610;28;20025;-73
2021/03/12 02:31:05;;;;;;;10.00;1.33;;;6.80;99.90;;;;;;5059687;28;20055;-73
2021/03/12 02:33:32;;;;;;;10.52;0.28;;;6.80;99.90;;;;;;5060728;28;20477;-73
2021/03/12 02:35:59;;;;;;;3.92;0.15;;;6.80;99.90;;;;;;5063038;28;20025;-73
2021/03/12 02:38:26;;;;;;;11.65;0.60;;;6.70;99.90;;;;;;5078264;28;20031;-74
2021/03/12 02:40:54;;;;;;;7.18;0.50;;;6.80;99.90;;;;;;5079428;28;20021;-73
2021/03/12 02:43:20;;;;;;;11.85;1.08;;;6.80;99.90;;;;;;5076993;28;20021;-74
2021/03/12 02:45:48;;;;;;;10.02;0.43;;;6.80;99.90;;;;;;5060540;28;20112;-74
2021/03/12 02:48:15;;;;;;;8.60;0.85;;;6.70;99.90;;;;;;5079548;28;20021;-73
2021/03/12 02:50:41;;;;;;;6.78;0.40;;;6.60;99.90;;;;;;5079903;28;20031;-74
2021/03/12 02:53:07;;;;;;;7.07;0.20;;;6.60;99.90;;;;;;5066583;28;20048;-74
2021/03/12 02:55:35;;;;;;;6.95;0.80;;;6.50;99.90;;;;;;5055859;28;20022;-74
2021/03/12 02:58:01;;;;;;;11.52;0.30;;;6.50;99.90;;;;;;5061953;28;20021;-74
2021/03/12 03:00:27;;;;;;;7.80;0.68;;;6.90;99.90;;;;;;5056473;28;20036;-74
2021/03/12 03:02:53;;;;;;;8.98;0.43;;;6.40;99.90;;;;;;5056825;28;20020;-74
2021/03/12 03:05:20;;;;;;;9.80;0.65;;;6.30;99.90;;;;;;5056352;28;20074;-74
2021/03/12 03:07:49;;;;;;;7.15;0.47;;;6.20;99.90;;;;;;5072378;28;20017;-74
2021/03/12 03:10:16;;;;;;;4.93;0.28;;;6.20;99.90;;;;;;5076555;28;20036;-74
2021/03/12 03:12:45;;;;;;;7.72;0.60;;;6.10;99.90;;;;;;5076767;28;20024;-73
2021/03/12 03:15:15;;;;;;;4.88;0.55;;;6.00;99.90;;;;;;5089649;22;20044;-74
2021/03/12 03:17:44;;;;;;;7.03;0.63;;;6.00;99.90;;;;;;5096780;28;20055;-73
2021/03/12 03:20:12;;;;;;;7.13;0.30;;;6.00;99.90;;;;;;5096606;28;20093;-74
2021/03/12 03:22:38;;;;;;;10.60;0.50;;;5.90;99.90;;;;;;5095566;28;20482;-74
2021/03/12 03:25:06;;;;;;;10.85;0.75;;;5.90;99.90;;;;;;5095704;28;20019;-74
2021/03/12 03:27:32;;;;;;;8.13;0.52;;;5.80;99.90;;;;;;5096325;28;20474;-74
2021/03/12 03:29:57;;;;;;;9.18;0.75;;;5.80;99.90;;;;;;5096472;28;20073;-73
2021/03/12 03:32:23;;;;;;;7.15;0.25;;;5.80;99.90;;;;;;5095811;28;20038;-74
2021/03/12 03:34:48;;;;;;;11.07;0.52;;;5.80;99.90;;;;;;5095626;28;20031;-74
2021/03/12 03:37:14;;;;;;;9.90;0.65;;;5.80;99.90;;;;;;5095278;28;20100;-73
2021/03/12 03:39:40;;;;;;;7.97;0.28;;;5.70;99.90;;;;;;5086878;22;20045;-74
2021/03/12 03:42:08;;;;;;;8.30;0.73;;;5.70;99.90;;;;;;5056513;28;20023;-74
2021/03/12 03:44:36;;;;;;;9.98;0.55;;;5.70;99.90;;;;;;5054917;28;20491;-74
2021/03/12 03:47:04;;;;;;;11.52;0.38;;;5.70;99.90;;;;;;5056132;28;20059;-74
2021/03/12 03:49:34;;;;;;;5.07;0.10;;;5.70;99.90;;;;;;5054349;28;20029;-74
2021/03/12 03:52:02;;;;;;;8.75;0.70;;;5.70;99.90;;;;;;5055587;28;20086;-74
2021/03/12 03:54:28;;;;;;;5.72;0.63;;;5.60;99.90;;;;;;5055968;28;20029;-74
2021/03/12 03:56:53;;;;;;;15.07;1.05;;;5.70;99.90;;;;;;5054671;28;20410;-74
2021/03/12 03:59:20;;;;;;;11.13;0.20;;;5.60;99.90;;;;;;5055857;28;20037;-75
2021/03/12 04:01:46;;;;;;;5.68;0.25;;;5.60;99.90;;;;;;5055248;28;20506;-75
2021/03/12 04:04:13;;;;;;;7.63;0.80;;;5.60;99.90;;;;;;5055043;28;20021;-74
2021/03/12 04:06:42;;;;;;;3.60;0.40;;;5.60;99.90;;;;;;5055087;28;20029;-74
2021/03/12 04:09:07;;;;;;;6.78;0.45;;;5.60;99.90;;;;;;5054724;28;20499;-74
2021/03/12 04:11:34;;;;;;;8.48;0.13;;;5.60;99.90;;;;;;5055455;28;20025;-75
2021/03/12 04:14:01;;;;;;;4.93;0.30;;;5.60;99.90;;;;;;5055046;28;20386;-74
2021/03/12 04:16:29;;;;;;;5.70;0.57;;;5.50;99.90;;;;;;5053881;28;20403;-74
2021/03/12 04:18:55;;;;;;;10.05;0.22;;;5.50;99.90;;;;;;5055211;28;20088;-74
2021/03/12 04:21:21;;;;;;;11.52;0.30;;;5.40;99.90;;;;;;5055201;28;20024;-75
2021/03/12 04:23:47;;;;;;;18.80;0.60;;;5.50;99.90;;;;;;5083553;22;20044;-75
2021/03/12 04:26:13;;;;;;;5.57;0.68;;;5.40;99.90;;;;;;5075018;28;20015;-74
2021/03/12 04:28:39;;;;;;;5.95;0.85;;;5.40;99.90;;;;;;5075242;28;20028;-74
2021/03/12 04:31:05;;;;;;;12.23;1.00;;;5.40;99.90;;;;;;5075190;28;20025;-74
2021/03/12 04:33:31;;;;;;;5.18;0.30;;;5.30;99.90;;;;;;5073150;28;20058;-74
2021/03/12 04:35:57;;;;;;;8.18;1.35;;;5.40;99.90;;;;;;5073271;28;20372;-74
2021/03/12 04:38:25;;;;;;;5.38;0.32;;;5.30;99.90;;;;;;5075382;28;20064;-75
2021/03/12 04:40:51;;;;;;;6.03;0.40;;;5.30;99.90;;;;;;5075249;28;20387;-74
2021/03/12 04:43:16;;;;;;;8.80;0.30;;;5.30;99.90;;;;;;5074503;28;20031;-74
2021/03/12 04:45:43;;;;;;;4.72;0.05;;;5.30;99.90;;;;;;5075071;28;20046;-75
2021/03/12 04:48:10;;;;;;;9.18;0.73;;;5.30;99.90;;;;;;5074736;28;20025;-74
2021/03/12 04:50:37;;;;;;;7.10;0.50;;;5.20;99.90;;;;;;5074479;28;20078;-74
2021/03/12 04:53:04;;;;;;;7.50;0.40;;;5.20;99.90;;;;;;5073458;28;20107;-74
2021/03/12 04:55:30;;;;;;;7.53;0.30;;;5.30;99.90;;;;;;5073861;28;20139;-74
2021/03/12 04:58:00;;;;;;;11.80;1.00;;;5.30;99.90;;;;;;5074452;28;20451;-74
2021/03/12 05:00:26;;;;;;;5.50;0.43;;;5.30;99.90;;;;;;5072118;28;20036;-74
2021/03/12 05:02:54;;;;;;;9.05;0.20;;;5.30;99.90;;;;;;5072637;28;20475;-75
2021/03/12 05:05:22;;;;;;;8.35;0.65;;;5.30;99.90;;;;;;5074355;28;20089;-75
2021/03/12 05:07:48;;;;;;;8.52;0.38;;;5.20;99.90;;;;;;5072582;28;20473;-75
2021/03/12 05:10:15;;;;;;;8.95;0.30;;;5.20;99.90;;;;;;5074191;28;20108;-74
2021/03/12 05:12:41;;;;;;;14.23;0.55;;;5.30;99.90;;;;;;5073515;28;20059;-74
2021/03/12 05:15:08;;;;;;;8.23;0.88;;;5.20;99.90;;;;;;5072351;28;20056;-74
2021/03/12 05:17:33;;;;;;;7.60;0.10;;;5.20;99.90;;;;;;5073222;28;20016;-75
2021/03/12 05:19:59;;;;;;;9.75;0.22;;;5.20;99.90;;;;;;5073313;28;20039;-75
2021/03/12 05:22:24;;;;;;;7.35;0.38;;;5.20;99.90;;;;;;5073347;28;20060;-74
2021/03/12 05:24:50;;;;;;;4.78;0.35;;;5.20;99.90;;;;;;5074032;28;20391;-75
2021/03/12 05:27:16;;;;;;;9.35;0.17;;;5.20;99.90;;;;;;5073707;28;20020;-75
2021/03/12 05:29:41;;;;;;;7.82;0.32;;;5.20;99.90;;;;;;5073782;28;20028;-75
2021/03/12 05:32:07;;;;;;;12.90;2.08;;;5.30;99.90;;;;;;5074424;28;20024;-74
2021/03/12 05:34:33;;;;;;;9.10;0.52;;;5.30;99.90;;;;;;5074570;28;20025;-74
2021/03/12 05:39:26;;;;;;;12.25;0.55;;;5.30;99.90;;;;;;5032636;28;20095;-74
2021/03/12 05:41:53;;;;;;;7.50;0.47;;;5.20;99.90;;;;;;5100102;22;20056;-73
2021/03/12 05:44:19;;;;;;;11.45;0.30;;;5.20;99.90;;;;;;5094563;28;20046;-73
2021/03/12 05:46:45;;;;;;;4.65;0.38;;;5.20;99.90;;;;;;5090614;22;20053;-74
2021/03/12 05:49:13;;;;;;;13.00;0.85;;;5.20;99.90;;;;;;5074239;28;20051;-75
2021/03/12 05:51:39;;;;;;;4.63;0.40;;;5.20;99.90;;;;;;5073351;28;20482;-74
2021/03/12 05:54:06;;;;;;;6.35;0.80;;;5.10;99.90;;;;;;5072775;28;20021;-75
2021/03/12 05:56:34;;;;;;;6.60;0.63;;;5.10;99.90;;;;;;5084192;22;20028;-74
2021/03/12 05:58:59;;;;;;;14.48;0.47;;;5.20;99.90;;;;;;5057339;22;20472;-75
2021/03/12 06:01:25;;;;;;;3.92;0.32;;;5.10;99.90;;;;;;5052717;28;20079;-75
2021/03/12 06:03:51;;;;;;;6.38;1.35;;;5.20;99.90;;;;;;5069038;28;20104;-74
2021/03/12 06:06:17;;;;;;;12.05;1.38;;;5.20;99.90;;;;;;5054546;28;20060;-74
2021/03/12 06:08:43;;;;;;;8.23;1.58;;;5.20;99.90;;;;;;5054152;28;20499;-74
2021/03/12 06:11:09;;;;;;;12.48;1.38;;;5.10;99.90;;;;;;5054283;28;20066;-75
2021/03/12 06:13:52;;;;;;;5.18;0.20;;;5.20;99.90;;;;;;5053534;28;20083;-73
2021/03/12 06:16:28;;;;;;;5.22;0.13;;;5.20;99.90;;;;;;5067480;22;20048;-74
2021/03/12 06:19:14;;;;;;;5.97;0.22;;;5.20;99.90;;;;;;5052559;28;20021;-74
2021/03/12 06:21:41;;;;;;;8.35;0.65;;;5.20;99.90;;;;;;5032455;28;20506;-74
2021/03/12 06:24:30;;;;;;;12.32;0.43;;;5.20;99.90;;;;;;5033401;28;20010;-74
2021/03/12 06:26:57;;;;;;;7.45;0.40;;;5.30;99.90;;;;;;5032162;28;20480;-74
2021/03/12 06:29:39;;;;;;;7.80;1.30;;;5.20;99.90;;;;;;5033423;28;20055;-74
2021/03/12 06:32:06;;;;;;;6.72;0.63;;;5.20;99.90;;;;;;5036172;28;20093;-74
2021/03/12 06:34:33;;;;;;;7.70;0.65;;;5.10;99.90;;;;;;5036925;28;20031;-74
2021/03/12 06:36:59;;;;;;;8.27;0.55;;;5.20;99.90;;;;;;5035645;28;20480;-74
2021/03/12 06:42:10;;;;;;;19.73;1.40;;;5.20;99.90;;;;;;5055819;28;20045;-75
2021/03/12 06:48:19;;;;;;;10.95;0.40;;;5.20;99.90;;;;;;5073528;28;20043;-76
2021/03/12 06:50:49;;;;;;;6.82;0.25;;;5.30;99.90;;;;;;5076196;28;20520;-76
2021/03/12 06:53:18;;;;;;;8.70;0.43;;;5.30;99.90;;;;;;5075382;28;20159;-75
2021/03/12 06:55:44;;;;;;;10.20;0.65;;;5.40;99.90;;;;;;5076422;28;20039;-74
2021/03/12 06:58:10;;;;;;;20.88;2.15;;;5.40;99.90;;;;;;5075942;28;20539;-74
2021/03/12 07:00:35;;;;;;;5.53;0.60;;;5.40;99.90;;;;;;5075430;28;20139;-78
2021/03/12 07:03:01;;;;;;;18.08;1.88;;;5.50;99.90;;;;;;5076330;28;20021;-75
2021/03/12 07:05:28;;;;;;;12.98;0.82;;;5.50;99.90;;;;;;5077051;28;20021;-75
2021/03/12 07:07:54;;;;;;;10.50;0.75;;;5.50;99.90;;;;;;5075033;28;20088;-75
2021/03/12 07:10:20;;;;;;;10.63;0.15;;;5.50;99.90;;;;;;5076650;28;20552;-77
2021/03/12 07:12:47;;;;;;;14.00;0.63;;;5.50;99.90;;;;;;5076750;28;20021;-75
2021/03/12 07:15:14;;;;;;;10.95;0.50;;;5.50;99.90;;;;;;5076716;28;20083;-73
2021/03/12 07:17:40;;;;;;;15.00;1.45;;;5.50;99.90;;;;;;5076592;28;20032;-73
2021/03/12 07:20:08;;;;;;;4.63;0.65;;;5.50;99.90;;;;;;5076327;28;20021;-75
2021/03/12 07:22:36;;;;;;;12.40;0.60;;;5.60;99.90;;;;;;5076137;28;20020;-73
2021/03/12 07:25:07;;;;;;;8.43;0.10;;;5.60;99.90;;;;;;5076152;28;20087;-74
2021/03/12 07:27:35;;;;;;;8.20;1.27;;;5.60;99.90;;;;;;5074428;28;20534;-74
2021/03/12 07:30:03;;;;;;;21.33;1.13;;;5.70;99.90;;;;;;5076431;28;20111;-73
2021/03/12 07:32:31;;;;;;;7.70;0.45;;;5.70;99.90;;;;;;5075627;28;20624;-74
2021/03/12 07:35:01;;;;;;;10.55;0.28;;;5.70;99.90;;;;;;5074829;28;20435;-73
2021/03/12 07:37:27;;;;;;;14.23;1.23;;;5.80;99.90;;;;;;5076855;28;20418;-73
2021/03/12 07:39:55;;;;;;;12.60;1.42;;;5.80;99.90;;;;;;5074777;28;20048;-73
2021/03/12 07:42:22;;;;;;;15.45;1.52;;;5.90;99.90;;;;;;5076238;28;20020;-74
2021/03/12 07:44:50;;;;;;;19.33;2.28;;;5.90;99.90;;;;;;5074328;28;20043;-74
2021/03/12 07:47:24;;;;;;;11.30;0.75;;;6.00;99.90;;;;;;5075371;28;20086;-74
2021/03/12 07:49:50;;;;;;;10.07;0.43;;;6.00;99.90;;;;;;5076215;28;20032;-75
2021/03/12 07:52:15;;;;;;;12.20;1.20;;;6.20;99.90;;;;;;5075838;28;20024;-74
2021/03/12 07:54:41;;;;;;;12.98;0.90;;;6.20;99.90;;;;;;5074848;28;20546;-74
2021/03/12 07:57:08;;;;;;;10.80;0.73;;;6.30;99.90;;;;;;5076102;28;20122;-73
2021/03/12 07:59:57;;;;;;;19.90;1.88;;;6.40;99.90;;;;;;5075675;28;20087;-74
2021/03/12 08:02:22;;;;;;;7.25;0.30;;;6.40;99.90;;;;;;5075239;28;20016;-74
2021/03/12 08:04:50;;;;;;;14.63;0.32;;;6.60;99.90;;;;;;5075654;28;20022;-75
2021/03/12 08:07:19;;;;;;;15.60;0.95;;;6.60;99.90;;;;;;5089598;22;20059;-75
2021/03/12 08:09:52;;;;;;;11.77;0.75;;;6.60;99.90;;;;;;5035586;28;20121;-74
2021/03/12 08:12:32;;;;;;;15.07;1.55;;;6.70;99.90;;;;;;5035921;28;20029;-73
2021/03/12 08:15:14;;;;;;;10.25;1.27;;;6.80;99.90;;;;;;5034786;28;20033;-74
2021/03/12 08:17:40;;;;;;;14.00;1.98;;;7.00;99.90;;;;;;5022191;28;20029;-73
2021/03/12 08:20:41;;;;;;;8.23;0.63;;;7.10;99.90;;;;;;5016270;28;20477;-73
2021/03/12 08:23:08;;;;;;;10.75;1.15;;;7.30;99.90;;;;;;5002757;28;20048;-73
2021/03/12 08:25:40;;;;;;;13.50;1.33;;;7.50;99.90;;;;;;4998611;28;20121;-73
2021/03/12 08:28:06;;;;;;;16.65;1.02;;;7.50;99.90;;;;;;5024070;28;20108;-73
2021/03/12 08:30:34;;;;;;;16.17;1.88;;;7.70;99.90;;;;;;5030009;28;20060;-73
2021/03/12 08:33:01;;;;;;;11.00;1.00;;;7.70;99.90;;;;;;5049736;22;20029;-74
2021/03/12 08:35:33;;;;;;;8.57;1.20;;;7.50;99.90;;;;;;5075657;28;20024;-73
2021/03/12 08:38:03;;;;;;;11.75;1.38;;;7.90;99.90;;;;;;5094291;28;20440;-74
2021/03/12 08:40:30;;;;;;;15.77;1.00;;;8.00;99.90;;;;;;5094844;28;20432;-75
2021/03/12 08:43:04;;;;;;;11.18;0.28;;;7.90;99.90;;;;;;5075413;28;20025;-73
2021/03/12 08:45:42;;;;;;;19.13;1.05;;;8.00;99.90;;;;;;5079388;28;20044;-74
2021/03/12 08:48:10;;;;;;;15.70;0.80;;;8.00;99.90;;;;;;5064794;28;20051;-73
2021/03/12 08:50:42;;;;;;;19.27;1.20;;;8.00;99.90;;;;;;5087592;28;20059;-73
2021/03/12 08:53:08;;;;;;;19.52;1.85;;;8.00;99.90;;;;;;5074960;28;20131;-73
2021/03/12 08:55:34;;;;;;;8.25;1.42;;;8.00;99.90;;;;;;5087809;28;20465;-73
2021/03/12 08:58:38;;;;;;;13.82;1.17;;;8.10;99.90;;;;;;5074243;28;20016;-73
2021/03/12 09:01:26;;;;;;;11.60;0.68;;;8.20;99.90;;;;;;5067891;28;20376;-74
2021/03/12 09:03:54;;;;;;;9.93;0.75;;;8.20;99.90;;;;;;5074958;28;20036;-73
2021/03/12 09:06:27;;;;;;;5.25;0.60;;;8.30;99.90;;;;;;5075090;28;20116;-73
2021/03/12 09:08:53;;;;;;;11.93;1.45;;;8.40;99.90;;;;;;5073296;28;20394;-73
2021/03/12 09:11:22;;;;;;;15.27;1.50;;;8.30;99.90;;;;;;5075315;28;20040;-75
2021/03/12 09:13:50;;;;;;;10.63;1.02;;;8.10;99.90;;;;;;5078148;28;20479;-73
2021/03/12 09:16:25;;;;;;;14.27;1.08;;;8.00;99.90;;;;;;5084725;22;20106;-74
2021/03/12 09:18:53;;;;;;;9.27;1.15;;;7.90;99.90;;;;;;5036332;28;20021;-74
2021/03/12 09:21:24;;;;;;;10.07;1.30;;;8.00;99.90;;;;;;5054388;28;20029;-74
2021/03/12 09:24:00;;;;;;;21.67;1.17;;;8.10;99.90;;;;;;5053856;28;20033;-74
2021/03/12 09:26:29;;;;;;;13.55;1.92;;;8.30;99.90;;;;;;5061921;23;20071;-74
2021/03/12 09:28:58;;;;;;;12.73;1.17;;;8.30;99.90;;;;;;5094787;28;20027;-74
2021/03/12 09:31:32;;;;;;;13.60;1.00;;;8.30;99.90;;;;;;5094151;28;20016;-74
2021/03/12 09:34:00;;;;;;;10.07;1.70;;;8.30;99.90;;;;;;5093939;28;20028;-74
2021/03/12 09:36:43;;;;;;;28.88;2.00;;;8.40;99.90;;;;;;5093767;28;20035;-73
2021/03/12 09:39:10;;;;;;;10.55;1.25;;;8.40;99.90;;;;;;5094196;28;20028;-74
2021/03/12 09:41:41;;;;;;;10.50;1.30;;;8.40;99.90;;;;;;5093280;28;20012;-74
2021/03/12 09:44:15;;;;;;;19.48;1.67;;;8.40;99.90;;;;;;5078960;28;20024;-74
2021/03/12 09:46:42;;;;;;;14.40;1.58;;;8.50;99.90;;;;;;5092712;28;20028;-74
2021/03/12 09:49:20;;;;;;;16.50;2.05;;;8.40;99.90;;;;;;5094765;28;20024;-75
2021/03/12 09:51:49;;;;;;;9.55;0.70;;;8.50;99.90;;;;;;5094579;28;20028;-74
2021/03/12 09:54:16;;;;;;;17.45;1.15;;;8.50;99.90;;;;;;5092849;28;20020;-74
2021/03/12 09:56:49;;;;;;;22.23;3.05;;;8.40;99.90;;;;;;5057791;22;20048;-74
2021/03/12 09:59:17;;;;;;;15.70;2.22;;;8.30;99.90;;;;;;5053554;28;20044;-73
2021/03/12 10:01:43;;;;;;;13.57;1.15;;;8.20;99.90;;;;;;5053222;28;20032;-73
2021/03/12 10:04:32;;;;;;;11.25;1.00;;;7.90;99.90;;;;;;5052408;28;20046;-74
2021/03/12 10:07:02;;;;;;;14.90;1.70;;;7.70;99.90;;;;;;5057657;28;20048;-73
2021/03/12 10:09:29;;;;;;;11.68;0.93;;;7.50;99.90;;;;;;5073218;22;20048;-74
2021/03/12 10:11:56;;;;;;;12.90;1.40;;;7.30;99.90;;;;;;5045098;28;20024;-74
2021/03/12 10:14:31;;;;;;;10.77;1.70;;;7.20;99.90;;;;;;5057247;28;20082;-73
2021/03/12 10:17:16;;;;;;;17.00;1.83;;;7.00;99.90;;;;;;5053613;28;20029;-74
2021/03/12 10:19:55;;;;;;;16.85;2.22;;;7.00;99.90;;;;;;5057678;28;20033;-74
2021/03/12 10:22:43;;;;;;;7.55;0.85;;;6.90;99.90;;;;;;5055495;28;20036;-73
2021/03/12 10:25:19;;;;;;;22.42;1.90;;;6.90;99.90;;;;;;5055678;28;20051;-74
2021/03/12 10:27:44;;;;;;;14.57;1.65;;;7.00;99.90;;;;;;5056841;28;20023;-73
2021/03/12 10:30:13;;;;;;;7.65;0.65;;;7.10;99.90;;;;;;5056143;28;20103;-74
2021/03/12 10:32:42;;;;;;;9.18;0.60;;;7.20;99.90;;;;;;5055992;28;20083;-74
2021/03/12 10:35:20;;;;;;;;;;;7.40;99.90;;;;;;5058340;28;20426;-74
2021/03/12 10:37:47;;;;;;;9.07;1.00;;;7.50;99.90;;;;;;5056672;28;19905;-74
2021/03/12 10:40:13;;;;;;;9.55;0.77;;;7.60;99.90;;;;;;5057418;28;20021;-74
2021/03/12 10:42:39;;;;;;;11.95;2.15;;;7.70;99.90;;;;;;5057159;28;20079;-73
2021/03/12 10:45:07;;;;;;;14.00;2.30;;;7.60;99.90;;;;;;5056559;28;20029;-74
2021/03/12 10:47:34;;;;;;;8.32;1.80;;;7.60;99.90;;;;;;5053118;28;20146;-74
2021/03/12 10:50:16;;;;;;;19.88;2.53;;;7.50;99.90;;;;;;5084165;22;20041;-74
2021/03/12 10:52:42;;;;;;;5.20;0.63;;;7.50;99.90;;;;;;5074576;28;20025;-74
2021/03/12 10:55:09;;;;;;;11.70;0.95;;;7.60;99.90;;;;;;5075829;28;20500;-73
2021/03/12 10:57:46;;;;;;;12.43;0.50;;;7.70;99.90;;;;;;5075280;28;20048;-74
2021/03/12 11:00:20;;;;;;;8.27;1.40;;;7.80;99.90;;;;;;5075067;28;20463;-73
2021/03/12 11:03:36;;;;;;;7.22;0.90;;;7.90;99.90;;;;;;5073894;28;20013;-74
2021/03/12 11:06:06;;;;;;;16.13;1.08;;;7.90;99.90;;;;;;5033730;28;20119;-73
2021/03/12 11:08:32;;;;;;;6.95;0.68;;;7.80;99.90;;;;;;5016628;28;20388;-75
2021/03/12 11:10:59;;;;;;;7.03;0.82;;;7.90;99.90;;;;;;5056970;28;20390;-74
2021/03/12 11:13:25;;;;;;;10.30;1.48;;;8.00;99.90;;;;;;5055667;28;20052;-74
2021/03/12 11:15:51;;;;;;;13.52;1.38;;;8.10;99.90;;;;;;5069136;28;20527;-74
2021/03/12 11:18:18;;;;;;;4.72;0.90;;;8.00;99.90;;;;;;5046634;22;724289;-74
2021/03/12 11:20:44;;;;;;;8.50;0.65;;;8.00;99.90;;;;;;5050240;22;20049;-74
2021/03/12 11:23:10;;;;;;;6.55;1.52;;;8.00;99.90;;;;;;5036146;28;20060;-75
2021/03/12 11:25:37;;;;;;;11.80;1.70;;;8.00;99.90;;;;;;5036444;28;20017;-74
2021/03/12 11:28:04;;;;;;;10.02;0.77;;;8.10;99.90;;;;;;5036198;28;20396;-74
2021/03/12 11:30:33;;;;;;;6.35;0.98;;;8.10;99.90;;;;;;5033894;28;20029;-74
2021/03/12 11:32:58;;;;;;;;;;;8.20;99.90;;;;;;5036243;28;20385;-74
2021/03/12 11:35:24;;;;;;;9.15;1.50;;;8.20;99.90;;;;;;5034670;28;19924;-75
2021/03/12 11:37:50;;;;;;;8.88;0.75;;;8.20;99.90;;;;;;5035502;28;20029;-75
2021/03/12 11:40:16;;;;;;;11.63;1.83;;;8.10;99.90;;;;;;5035562;28;20025;-75
2021/03/12 11:42:42;;;;;;;11.68;1.92;;;8.10;99.90;;;;;;5036221;28;20026;-74
2021/03/12 11:45:10;;;;;;;6.85;1.08;;;8.30;99.90;;;;;;5034777;28;20025;-75
2021/03/12 11:47:38;;;;;;;9.52;1.05;;;8.00;99.90;;;;;;5033980;28;20033;-75
2021/03/12 11:50:09;;;;;;;8.07;1.83;;;8.10;99.90;;;;;;5078950;22;20047;-75
2021/03/12 11:52:34;;;;;;;9.75;0.55;;;8.20;99.90;;;;;;5074102;28;20028;-75
2021/03/12 11:55:00;;;;;;;11.23;1.17;;;8.30;99.90;;;;;;5074392;28;20021;-74
2021/03/12 11:57:26;;;;;;;12.18;0.80;;;8.30;99.90;;;;;;5074464;28;20039;-75
2021/03/12 11:59:51;;;;;;;9.85;1.90;;;8.40;99.90;;;;;;5075270;28;20025;-75
2021/03/12 12:02:17;;;;;;;13.70;1.38;;;8.40;99.90;;;;;;5074395;28;20048;-74
2021/03/12 12:04:47;;;;;;;10.18;0.77;;;8.40;99.90;;;;;;5074351;28;20074;-74
2021/03/12 12:07:13;;;;;;;14.13;1.77;;;8.40;99.90;;;;;;5079234;22;20452;-74
2021/03/12 12:09:40;;;;;;;9.95;1.35;;;8.40;99.90;;;;;;5037679;28;20033;-74
2021/03/12 12:12:09;;;;;;;12.50;0.85;;;8.30;99.90;;;;;;5037636;28;20017;-73
2021/03/12 12:14:35;;;;;;;7.82;1.10;;;8.30;99.90;;;;;;5073306;22;20060;-74
2021/03/12 12:17:01;;;;;;;12.80;1.42;;;8.30;99.90;;;;;;5070434;22;20013;-74
2021/03/12 12:19:27;;;;;;;6.55;1.17;;;8.10;99.90;;;;;;5074649;28;20172;-74
2021/03/12 12:21:53;;;;;;;5.07;0.47;;;8.30;99.90;;;;;;5074641;28;20138;-75
2021/03/12 12:24:18;;;;;;;4.72;1.08;;;8.40;99.90;;;;;;5074322;28;20070;-73
2021/03/12 12:26:44;;;;;;;9.05;0.68;;;8.40;99.90;;;;;;5088387;22;20052;-75
2021/03/12 12:29:10;;;;;;;11.02;1.30;;;8.40;99.90;;;;;;5074473;28;20028;-74
2021/03/12 12:31:36;;;;;;;4.63;0.77;;;8.30;99.90;;;;;;5112192;22;20616;-74
2021/03/12 12:34:03;;;;;;;4.10;0.55;;;8.40;99.90;;;;;;5095186;28;20099;-73
2021/03/12 12:36:32;;;;;;;10.07;0.43;;;8.40;99.90;;;;;;5076612;22;20507;-72
2021/03/12 12:39:00;;;;;;;8.68;0.95;;;8.40;99.90;;;;;;5053553;28;20075;-73
2021/03/12 12:41:25;;;;;;;5.72;0.57;;;8.30;99.90;;;;;;5055449;28;20083;-73
2021/03/12 12:43:52;;;;;;;7.22;1.17;;;8.40;99.90;;;;;;5054832;28;20025;-73
2021/03/12 12:46:21;;;;;;;8.82;0.70;;;8.40;99.90;;;;;;5054903;28;20032;-73
2021/03/12 12:48:46;;;;;;;7.00;0.30;;;9.00;99.90;;;;;;5088354;22;20056;-74
2021/03/12 12:51:12;;;;;;;7.25;1.55;;;8.30;99.90;;;;;;5075660;22;20103;-74
2021/03/12 12:53:38;;;;;;;6.47;0.10;;;8.30;99.90;;;;;;5054964;28;20601;-72
2021/03/12 12:56:04;;;;;;;5.43;0.30;;;8.20;99.90;;;;;;5053536;28;20054;-74
2021/03/12 12:58:30;;;;;;;9.95;1.83;;;8.20;99.90;;;;;;5073048;22;20086;-73
2021/03/12 13:00:56;;;;;;;13.55;1.10;;;8.10;99.90;;;;;;5078434;28;20051;-71
2021/03/12 13:03:22;;;;;;;10.20;0.60;;;8.10;99.90;;;;;;5094840;28;20345;-73
2021/03/12 13:05:49;;;;;;;6.72;0.85;;;8.00;99.90;;;;;;5108089;22;20017;-74
2021/03/12 13:08:14;;;;;;;2.88;0.35;;;7.90;99.90;;;;;;5054380;28;20033;-73